Auchterarder, United Kingdom
Current Conditions -  °F | °C
As of 11:50 PM on Friday 19 Dec 2014 (Local Time) from EGPH Reporting Station
Light Rain Light Rain  
Wind Chill: 34°   Ceiling: Unl
Heat Index: 43°   Visibility: 6mi
Dew Point: 37°   Wind: 23mph
Humidity: 81%   Direction: 260°W
Pressure: 29.77"   Gusts: 35mph
Location:  56.3°N, 3.71°W
Report Text: EGPH 192350Z 26020G30KT 9999 -RA FEW031 SCT036 06/03 Q1008
Loading
Personal Weather Stations






























Interactive Weather Map New forecast layout! Learn more

10-Day Weather Forecast

Advertisements
Track Severe Weather on mobile